UGSB/BUS METAR and TAF weather

Enter ICAO airport designator
Station Type Date Time Source
UGSB METAR 2019/02/20 18:00 UTC NOAA

UGSB 201800Z 09006KT 060V120 9999 SCT130 07/01 Q1020 NOSIG


Station Type Date Time Source
UGSB Decoded METAR 2019/02/20 18:00 UTC NOAA

Station name not available
Feb 20, 2019 - 01:00 PM EST / 2019.02.20 1800 UTC
Wind: from the E (090 degrees) at 7 MPH (6 KT) (direction variable):0
Visibility: greater than 7 mile(s):0
Sky conditions: partly cloudy
Temperature: 44 F (7 C)
Dew Point: 33 F (1 C)
Relative Humidity: 65%
Pressure (altimeter): 30.12 in. Hg (1020 hPa)
ob: UGSB 201800Z 09006KT 060V120 9999 SCT130 07/01 Q1020 NOSIG
cycle: 18

Station Type Date Time Source
UGSB TAF 2019/02/20 18:03 UTC NOAA

TAF UGSB 201700Z 2018/2118 13015KT 9999 SCT120 TX14/2111Z TN03/2021Z
TEMPO 2018/2020 VRB02KT 5000 BR
BECMG 2107/2109 29007KT
TEMPO 2115/2118 24017KT


Example: see airport list